< < Back
Terminal Aerodrome Forecast


Current Version              Previous Versions:   1  2  3  4  5  6  7  8  9  

Terminal Aerodrome Forecast

216
FTUS42 KGSP 211458 AAA
TAFCLT
TAF AMD
KCLT 211458Z 2115/2212 03005KT P6SM OVC022
     FM211700 05005KT P6SM SCT026 OVC040
     FM220200 07007KT P6SM OVC050
     FM220400 05008KT P6SM -RA OVC018
     FM220900 04008KT P6SM -RA OVC006=

Latest METAR

366
SAUS70 KWBC 211500 RRE
MTRCLT
METAR KCLT 211452Z 00000KT 10SM OVC022 07/01 A3029 RMK AO2 SLP259
T00670011 53009


USA.gov is the U.S. government's official web portal to all federal, state and local government web resources and services.